Time;durP1;ratioP1;P1;durP2;ratioP2;P2;SDS_P1;SDS_P2;PMS_P1;PMS_P2;Temp;Humidity;BMP_temperature;BMP_pressure;BME280_temperature;BME280_humidity;BME280_pressure;Samples;Min_cycle;Max_cycle;Signal;HPM_P1;HPM_P2
2021/06/22 00:00:05;;;;;;;;;;;13.50;99.90;;;;;;5096451;28;19908;-72
2021/06/22 00:02:30;;;;;;;;;;;13.40;99.90;;;;;;5095980;28;20263;-72
2021/06/22 00:04:55;;;;;;;;;;;13.50;99.90;;;;;;5095087;28;19915;-73
2021/06/22 00:07:21;;;;;;;;;;;13.50;99.90;;;;;;5095864;28;19954;-72
2021/06/22 00:09:47;;;;;;;;;;;13.40;99.90;;;;;;5095954;28;20344;-72
2021/06/22 00:12:12;;;;;;;;;;;13.40;99.90;;;;;;5095349;28;19908;-72
2021/06/22 00:14:38;;;;;;;;;;;13.40;99.90;;;;;;5095651;28;19954;-72
2021/06/22 00:17:03;;;;;;;;;;;13.40;99.90;;;;;;5095641;28;19912;-72
2021/06/22 00:19:29;;;;;;;;;;;13.40;99.90;;;;;;5095525;28;19965;-73
2021/06/22 00:21:54;;;;;;;;;;;13.30;99.90;;;;;;5095610;28;19908;-72
2021/06/22 00:24:20;;;;;;;;;;;13.30;99.90;;;;;;5095455;28;19915;-72
2021/06/22 00:26:45;;;;;;;;;;;13.30;99.90;;;;;;5094903;28;19914;-72
2021/06/22 00:29:10;;;;;;;;;;;13.30;99.90;;;;;;5095535;28;19908;-72
2021/06/22 00:31:36;;;;;;;;;;;13.30;99.90;;;;;;5095468;28;19962;-71
2021/06/22 00:34:01;;;;;;;;;;;13.30;99.90;;;;;;5094711;28;19916;-72
2021/06/22 00:36:27;;;;;;;;;;;13.30;99.90;;;;;;5095212;28;19930;-72
2021/06/22 00:38:52;;;;;;;;;;;13.20;99.90;;;;;;5095170;28;19916;-72
2021/06/22 00:41:19;;;;;;;;;;;13.20;99.90;;;;;;5094366;28;19926;-73
2021/06/22 00:43:45;;;;;;;;;;;13.20;99.90;;;;;;5095078;28;19908;-72
2021/06/22 00:46:10;;;;;;;;;;;13.20;99.90;;;;;;5095070;28;19915;-73
2021/06/22 00:48:36;;;;;;;;;;;13.20;99.90;;;;;;5093331;28;19969;-72
2021/06/22 00:51:01;;;;;;;;;;;13.20;99.90;;;;;;5094691;28;19990;-72
2021/06/22 00:53:27;;;;;;;;;;;13.20;99.90;;;;;;5094317;28;19983;-72
2021/06/22 00:55:53;;;;;;;;;;;13.20;99.90;;;;;;5094716;28;19959;-72
2021/06/22 00:58:18;;;;;;;;;;;13.20;99.90;;;;;;5094815;28;19966;-72
2021/06/22 01:00:44;;;;;;;;;;;13.20;99.90;;;;;;5094081;28;19912;-73
2021/06/22 01:03:09;;;;;;;;;;;13.20;99.90;;;;;;5094676;28;19908;-73
2021/06/22 01:05:35;;;;;;;;;;;13.20;99.90;;;;;;5094653;28;19908;-73
2021/06/22 01:08:00;;;;;;;;;;;13.30;99.90;;;;;;5093891;28;19908;-72
2021/06/22 01:10:26;;;;;;;;;;;13.30;99.90;;;;;;5094536;28;19916;-74
2021/06/22 01:12:53;;;;;;;;;;;13.30;99.90;;;;;;5094676;28;19915;-72
2021/06/22 01:15:20;;;;;;;;;;;13.30;99.90;;;;;;5093781;28;20348;-72
2021/06/22 01:17:46;;;;;;;;;;;13.30;99.90;;;;;;5094424;28;20285;-72
2021/06/22 01:20:12;;;;;;;;;;;13.30;99.90;;;;;;5094272;28;19991;-72
2021/06/22 01:22:42;;;;;;;;;;;13.30;99.90;;;;;;5093808;28;19998;-72
2021/06/22 01:25:07;;;;;;;;;;;13.20;99.90;;;;;;5094380;28;19919;-72
2021/06/22 01:27:33;;;;;;;;;;;13.20;99.90;;;;;;5094407;28;19912;-73
2021/06/22 01:30:01;;;;;;;;;;;13.20;99.90;;;;;;5093444;28;19931;-73
2021/06/22 01:32:27;;;;;;;;;;;13.20;99.90;;;;;;5094190;28;19909;-72
2021/06/22 01:34:54;;;;;;;;;;;13.20;99.90;;;;;;5094148;28;19942;-72
2021/06/22 01:37:20;;;;;;;;;;;13.20;99.90;;;;;;5093350;28;19930;-72
2021/06/22 01:39:45;;;;;;;;;;;13.20;99.90;;;;;;5094206;28;20351;-72
2021/06/22 01:42:11;;;;;;;;;;;13.20;99.90;;;;;;5092552;28;20434;-72
2021/06/22 01:44:36;;;;;;;;;;;13.20;99.90;;;;;;5093520;28;19908;-73
2021/06/22 01:47:04;;;;;;;;;;;13.20;99.90;;;;;;5094009;28;19982;-73
2021/06/22 01:49:29;;;;;;;;;;;13.20;99.90;;;;;;5093949;28;20348;-73
2021/06/22 01:51:55;;;;;;;;;;;13.20;99.90;;;;;;5093277;28;19936;-73
2021/06/22 01:54:20;;;;;;;;;;;13.10;99.90;;;;;;5093975;28;20429;-73
2021/06/22 01:56:49;;;;;;;;;;;13.10;99.90;;;;;;5093224;28;20330;-73
2021/06/22 01:59:15;;;;;;;;;;;13.10;99.90;;;;;;5093513;28;19916;-73
2021/06/22 02:01:41;;;;;;;;;;;13.10;99.90;;;;;;5093782;28;19914;-73
2021/06/22 02:04:06;;;;;;;;;;;13.10;99.90;;;;;;5093003;28;19916;-73
2021/06/22 02:06:32;;;;;;;;;;;13.10;99.90;;;;;;5093475;28;19908;-73
2021/06/22 02:08:57;;;;;;;;;;;13.10;99.90;;;;;;5093755;28;19999;-72
2021/06/22 02:11:23;;;;;;;;;;;13.00;99.90;;;;;;5092500;28;19912;-72
2021/06/22 02:13:49;;;;;;;;;;;13.00;99.90;;;;;;5093363;28;19908;-72
2021/06/22 02:16:15;;;;;;;;;;;13.10;99.90;;;;;;5093245;28;19912;-73
2021/06/22 02:18:40;;;;;;;;;;;13.00;99.90;;;;;;5092664;28;19923;-72
2021/06/22 02:21:06;;;;;;;;;;;13.00;99.90;;;;;;5093167;28;19908;-73
2021/06/22 02:23:32;;;;;;;;;;;13.00;99.90;;;;;;5093576;28;19939;-71
2021/06/22 02:25:57;;;;;;;;;;;13.00;99.90;;;;;;5092704;28;19908;-72
2021/06/22 02:28:23;;;;;;;;;;;13.00;99.90;;;;;;5093537;28;19912;-72
2021/06/22 02:30:50;;;;;;;;;;;13.00;99.90;;;;;;5093272;28;19994;-72
2021/06/22 02:33:15;;;;;;;;;;;13.00;99.90;;;;;;5092477;28;19974;-71
2021/06/22 02:35:42;;;;;;;;;;;13.00;99.90;;;;;;5093499;28;19931;-71
2021/06/22 02:38:08;;;;;;;;;;;13.00;99.90;;;;;;5093274;28;19920;-72
2021/06/22 02:40:33;;;;;;;;;;;13.00;99.90;;;;;;5092317;28;19968;-72
2021/06/22 02:42:59;;;;;;;;;;;12.90;99.90;;;;;;5093406;28;19915;-72
2021/06/22 02:45:24;;;;;;;;;;;12.90;99.90;;;;;;5093371;28;20425;-73
2021/06/22 02:47:50;;;;;;;;;;;12.90;99.90;;;;;;5092376;28;19908;-73
2021/06/22 02:50:16;;;;;;;;;;;12.90;99.90;;;;;;5093074;28;19912;-72
2021/06/22 02:52:42;;;;;;;;;;;12.90;99.90;;;;;;5093149;28;20276;-72
2021/06/22 02:55:18;;;;;;;;;;;12.90;99.90;;;;;;5092381;28;19915;-74
2021/06/22 02:57:43;;;;;;;;;;;13.00;99.90;;;;;;5093054;28;19916;-74
2021/06/22 03:00:09;;;;;;;;;;;13.00;99.90;;;;;;5092422;28;20378;-73
2021/06/22 03:02:35;;;;;;;;;;;13.00;99.90;;;;;;5093090;28;19908;-72
2021/06/22 03:05:00;;;;;;;;;;;13.00;99.90;;;;;;5093119;28;19908;-72
2021/06/22 03:07:26;;;;;;;;;;;13.10;99.90;;;;;;5092382;28;19908;-72
2021/06/22 03:09:51;;;;;;;;;;;13.10;99.90;;;;;;5093088;28;19915;-72
2021/06/22 03:12:16;;;;;;;;;;;13.10;99.90;;;;;;5096263;28;19908;-72
2021/06/22 03:14:42;;;;;;;;;;;13.10;99.90;;;;;;5096046;28;20011;-73
2021/06/22 03:17:07;;;;;;;;;;;13.10;99.90;;;;;;5096807;28;19912;-72
2021/06/22 03:19:33;;;;;;;;;;;13.10;99.90;;;;;;5096824;28;19973;-72
2021/06/22 03:21:58;;;;;;;;;;;13.10;99.90;;;;;;5096017;28;19916;-72
2021/06/22 03:24:24;;;;;;;;;;;13.10;99.90;;;;;;5096834;28;20436;-72
2021/06/22 03:26:49;;;;;;;;;;;13.20;99.90;;;;;;5096543;28;19908;-74
2021/06/22 03:29:15;;;;;;;;;;;13.10;99.90;;;;;;5095847;28;20309;-74
2021/06/22 03:31:41;;;;;;;;;;;13.20;99.90;;;;;;5096572;28;20205;-71
2021/06/22 03:34:06;;;;;;;;;;;13.20;99.90;;;;;;5096116;28;19930;-73
2021/06/22 03:36:32;;;;;;;;;;;13.20;99.90;;;;;;5095576;28;19909;-72
2021/06/22 03:38:57;;;;;;;;;;;13.20;99.90;;;;;;5096128;28;19926;-73
2021/06/22 03:41:23;;;;;;;;;;;13.20;99.90;;;;;;5096068;28;19960;-73
2021/06/22 03:43:48;;;;;;;;;;;13.30;99.90;;;;;;5095400;28;19908;-73
2021/06/22 03:46:19;;;;;;;;;;;13.30;99.90;;;;;;5095938;28;19959;-73
2021/06/22 03:48:47;;;;;;;;;;;13.30;99.90;;;;;;5096324;28;19987;-72
2021/06/22 03:51:12;;;;;;;;;;;13.20;99.90;;;;;;5095420;28;19908;-72
2021/06/22 03:53:38;;;;;;;;;;;13.30;99.90;;;;;;5096158;28;20013;-72
2021/06/22 03:56:06;;;;;;;;;;;13.30;99.90;;;;;;5096170;28;19912;-72
2021/06/22 03:58:32;;;;;;;;;;;13.30;99.90;;;;;;5095085;28;19916;-73
2021/06/22 04:00:58;;;;;;;;;;;13.30;99.90;;;;;;5096080;28;19915;-72
2021/06/22 04:03:23;;;;;;;;;;;13.30;99.90;;;;;;5095272;28;20291;-73
2021/06/22 04:05:48;;;;;;;;;;;13.30;99.90;;;;;;5095984;28;19908;-73
2021/06/22 04:08:14;;;;;;;;;;;13.30;99.90;;;;;;5095933;28;20364;-72
2021/06/22 04:10:39;;;;;;;;;;;13.30;99.90;;;;;;5094886;28;19908;-73
2021/06/22 04:13:05;;;;;;;;;;;13.40;99.90;;;;;;5095783;28;19908;-71
2021/06/22 04:15:30;;;;;;;;;;;13.40;99.90;;;;;;5095773;28;19908;-72
2021/06/22 04:17:59;;;;;;;;;;;13.40;99.90;;;;;;5094938;28;20264;-72
2021/06/22 04:20:25;;;;;;;;;;;13.40;99.90;;;;;;5095676;28;19915;-72
2021/06/22 04:22:50;;;;;;;;;;;13.50;99.90;;;;;;5095256;28;19908;-74
2021/06/22 04:25:16;;;;;;;;;;;13.50;99.90;;;;;;5094809;28;19997;-73
2021/06/22 04:27:41;;;;;;;;;;;13.50;99.90;;;;;;5095462;28;19908;-72
2021/06/22 04:30:07;;;;;;;;;;;13.50;99.90;;;;;;5095363;28;19908;-72
2021/06/22 04:32:33;;;;;;;;;;;13.50;99.90;;;;;;5094561;28;19916;-72
2021/06/22 04:34:58;;;;;;;;;;;13.60;99.90;;;;;;5095263;28;19916;-73
2021/06/22 04:37:24;;;;;;;;;;;13.60;99.90;;;;;;5095164;28;19958;-72
2021/06/22 04:39:49;;;;;;;;;;;13.70;99.90;;;;;;5094420;28;19923;-73
2021/06/22 04:42:14;;;;;;;;;;;13.70;99.90;;;;;;5094692;28;19963;-72
2021/06/22 04:44:40;;;;;;;;;;;13.70;99.90;;;;;;5094964;28;19919;-71
2021/06/22 04:47:05;;;;;;;;;;;13.70;99.90;;;;;;5094419;28;20344;-72
2021/06/22 04:49:31;;;;;;;;;;;13.80;99.90;;;;;;5094633;28;19912;-72
2021/06/22 04:51:56;;;;;;;;;;;13.90;99.90;;;;;;5094857;28;19909;-72
2021/06/22 04:54:23;;;;;;;;;;;13.90;99.90;;;;;;5094124;28;19909;-72
2021/06/22 04:56:49;;;;;;;;;;;14.00;99.90;;;;;;5095016;28;19908;-73
2021/06/22 04:59:14;;;;;;;;;;;14.00;99.90;;;;;;5094818;28;19939;-72
2021/06/22 05:01:40;;;;;;;;;;;14.10;99.90;;;;;;5093977;28;20352;-72
2021/06/22 05:04:06;;;;;;;;;;;14.10;99.90;;;;;;5094579;28;19961;-72
2021/06/22 05:06:31;;;;;;;;;;;14.20;99.90;;;;;;5094615;28;19908;-73
2021/06/22 05:08:56;;;;;;;;;;;14.20;99.90;;;;;;5094357;28;19912;-72
2021/06/22 05:11:22;;;;;;;;;;;14.20;99.90;;;;;;5094453;28;20379;-72
2021/06/22 05:13:48;;;;;;;;;;;14.20;99.90;;;;;;5093763;28;20272;-72
2021/06/22 05:16:15;;;;;;;;;;;14.20;99.90;;;;;;5094614;28;20271;-72
2021/06/22 05:18:40;;;;;;;;;;;14.20;99.90;;;;;;5094267;28;19916;-72
2021/06/22 05:21:06;;;;;;;;;;;14.20;99.90;;;;;;5093643;28;19987;-72
2021/06/22 05:23:31;;;;;;;;;;;14.20;99.90;;;;;;5094319;28;19917;-72
2021/06/22 05:25:57;;;;;;;;;;;14.20;99.90;;;;;;5094457;28;19995;-73
2021/06/22 05:28:22;;;;;;;;;;;14.20;99.90;;;;;;5093580;28;20385;-73
2021/06/22 05:30:47;;;;;;;;;;;14.20;99.90;;;;;;5094393;28;19915;-73
2021/06/22 05:33:13;;;;;;;;;;;14.20;99.90;;;;;;5093537;28;19999;-72
2021/06/22 05:35:38;;;;;;;;;;;14.20;99.90;;;;;;5093363;28;19908;-72
2021/06/22 05:38:04;;;;;;;;;;;14.20;99.90;;;;;;5093958;28;20382;-72
2021/06/22 05:40:29;;;;;;;;;;;14.30;99.90;;;;;;5094129;28;20003;-73
2021/06/22 05:42:55;;;;;;;;;;;14.30;99.90;;;;;;5092913;28;19928;-73
2021/06/22 05:45:21;;;;;;;;;;;14.40;99.90;;;;;;5094127;28;19908;-72
2021/06/22 05:47:47;;;;;;;;;;;14.40;99.90;;;;;;5094088;28;19919;-72
2021/06/22 05:50:12;;;;;;;;;;;14.40;99.90;;;;;;5093132;28;20045;-72
2021/06/22 05:52:38;;;;;;;;;;;14.40;99.90;;;;;;5093963;28;19908;-72
2021/06/22 05:55:16;;;;;;;;;;;14.40;99.90;;;;;;5093639;28;20318;-72
2021/06/22 05:57:43;;;;;;;;;;;14.30;99.90;;;;;;5093121;28;19912;-72
2021/06/22 06:00:10;;;;;;;;;;;14.30;99.90;;;;;;5093851;28;20007;-73
2021/06/22 06:02:35;;;;;;;;;;;14.30;99.90;;;;;;5093654;28;20356;-72
2021/06/22 06:05:01;;;;;;;;;;;14.30;99.90;;;;;;5093096;28;20128;-72
2021/06/22 06:07:27;;;;;;;;;;;14.30;99.90;;;;;;5093486;28;19908;-72
2021/06/22 06:09:52;;;;;;;;;;;14.40;99.90;;;;;;5092866;28;19908;-73
2021/06/22 06:12:18;;;;;;;;;;;14.40;99.90;;;;;;5093727;28;20048;-73
2021/06/22 06:14:43;;;;;;;;;;;14.30;99.90;;;;;;5093337;28;19912;-73
2021/06/22 06:17:09;;;;;;;;;;;14.40;99.90;;;;;;5092855;28;19908;-72
2021/06/22 06:19:35;;;;;;;;;;;14.30;99.90;;;;;;5093475;28;19923;-72
2021/06/22 06:22:00;;;;;;;;;;;14.40;99.90;;;;;;5093571;28;19994;-72
2021/06/22 06:24:25;;;;;;;;;;;14.40;99.90;;;;;;5092459;28;20279;-73
2021/06/22 06:27:06;;;;;;;;;;;14.50;99.90;;;;;;5093418;28;19909;-72
2021/06/22 06:29:48;;;;;;;;;;;14.50;99.90;;;;;;5093462;28;19947;-72
2021/06/22 06:32:13;;;;;;;;;;;14.60;99.90;;;;;;5092551;28;19919;-72
2021/06/22 06:34:39;;;;;;;;;;;14.60;99.90;;;;;;5093129;28;19918;-73
2021/06/22 06:37:04;;;;;;;;;;;14.70;99.90;;;;;;5093075;28;19908;-73
2021/06/22 06:39:30;;;;;;;;;;;14.60;99.90;;;;;;5092499;28;19938;-72
2021/06/22 06:41:55;;;;;;;;;;;14.70;99.90;;;;;;5093078;28;20398;-72
2021/06/22 06:44:21;;;;;;;;;;;14.70;99.90;;;;;;5093464;28;19908;-72
2021/06/22 06:46:46;;;;;;;;;;;14.80;99.90;;;;;;5095288;28;19960;-72
2021/06/22 06:49:12;;;;;;;;;;;14.80;99.90;;;;;;5097390;28;20379;-72
2021/06/22 06:51:37;;;;;;;;;;;15.00;99.90;;;;;;5097315;28;19914;-72
2021/06/22 06:54:03;;;;;;;;;;;15.10;99.90;;;;;;5096690;28;20006;-72
2021/06/22 06:56:28;;;;;;;;;;;15.10;99.90;;;;;;5097286;28;19908;-73
2021/06/22 06:58:54;;;;;;;;;;;15.30;99.90;;;;;;5097246;28;20295;-73
2021/06/22 07:01:19;;;;;;;;;;;15.40;99.90;;;;;;5096340;28;19914;-73
2021/06/22 07:03:45;;;;;;;;;;;15.40;99.90;;;;;;5097063;28;19969;-72
2021/06/22 07:06:11;;;;;;;;;;;15.30;99.90;;;;;;5096278;28;19908;-72
2021/06/22 07:08:36;;;;;;;;;;;15.40;99.90;;;;;;5097740;28;20339;-72
2021/06/22 07:11:02;;;;;;;;;;;15.50;99.90;;;;;;5096896;28;19943;-73
2021/06/22 07:13:27;;;;;;;;;;;15.50;99.90;;;;;;5096204;28;19919;-72
2021/06/22 07:15:53;;;;;;;;;;;15.70;99.90;;;;;;5096848;28;20356;-72
2021/06/22 07:18:18;;;;;;;;;;;15.70;99.90;;;;;;5096866;28;19916;-72
2021/06/22 07:20:44;;;;;;;;;;;15.60;99.90;;;;;;5096025;28;19912;-71
2021/06/22 07:23:09;;;;;;;;;;;15.70;99.90;;;;;;5096856;28;19909;-72
2021/06/22 07:25:35;;;;;;;;;;;15.70;99.90;;;;;;5096399;28;20244;-72
2021/06/22 07:28:00;;;;;;;;;;;15.70;99.90;;;;;;5095907;28;19994;-72
2021/06/22 07:30:26;;;;;;;;;;;15.70;99.90;;;;;;5096614;28;19908;-72
2021/06/22 07:32:53;;;;;;;;;;;15.70;99.90;;;;;;5096124;28;19970;-72
2021/06/22 07:35:18;;;;;;;;;;;15.80;99.90;;;;;;5095302;28;19909;-72
2021/06/22 07:37:44;;;;;;;;;;;15.90;99.90;;;;;;5096322;28;20379;-71
2021/06/22 07:40:10;;;;;;;;;;;16.10;99.90;;;;;;5096250;28;20363;-72
2021/06/22 07:42:36;;;;;;;;;;;16.10;99.90;;;;;;5095251;28;19920;-71
2021/06/22 07:45:01;;;;;;;;;;;16.10;99.90;;;;;;5096455;28;19908;-72
2021/06/22 07:47:27;;;;;;;;;;;16.00;99.90;;;;;;5096362;28;19908;-72
2021/06/22 07:49:52;;;;;;;;;;;16.00;99.90;;;;;;5095470;28;19908;-72
2021/06/22 07:52:18;;;;;;;;;;;16.10;99.90;;;;;;5095999;28;19955;-72
2021/06/22 07:54:44;;;;;;;;;;;16.10;99.90;;;;;;5095951;28;19957;-73
2021/06/22 07:57:10;;;;;;;;;;;16.00;99.90;;;;;;5094770;28;19912;-72
2021/06/22 07:59:35;;;;;;;;;;;16.10;99.90;;;;;;5095818;28;19916;-72
2021/06/22 08:02:01;;;;;;;;;;;16.20;99.90;;;;;;5095919;28;20257;-71
2021/06/22 08:04:27;;;;;;;;;;;16.20;99.90;;;;;;5094908;28;19973;-73
2021/06/22 08:06:53;;;;;;;;;;;16.20;99.90;;;;;;5095948;28;19908;-71
2021/06/22 08:09:19;;;;;;;;;;;16.40;99.90;;;;;;5095728;28;20346;-72
2021/06/22 08:11:45;;;;;;;;;;;16.40;99.90;;;;;;5095119;28;19930;-72
2021/06/22 08:14:10;;;;;;;;;;;16.50;99.90;;;;;;5095627;28;20340;-72
2021/06/22 08:16:36;;;;;;;;;;;16.60;99.90;;;;;;5094789;28;19977;-72
2021/06/22 08:19:02;;;;;;;;;;;16.60;99.90;;;;;;5095556;28;20015;-72
2021/06/22 08:21:27;;;;;;;;;;;16.40;99.90;;;;;;5095674;28;19915;-72
2021/06/22 08:23:53;;;;;;;;;;;16.50;99.90;;;;;;5094738;28;20129;-72
2021/06/22 08:26:18;;;;;;;;;;;16.40;99.90;;;;;;5095300;28;19915;-71
2021/06/22 08:28:44;;;;;;;;;;;16.30;99.90;;;;;;5095370;28;19908;-72
2021/06/22 08:31:09;;;;;;;;;;;16.30;99.90;;;;;;5094572;28;20276;-72
2021/06/22 08:33:35;;;;;;;;;;;16.20;99.90;;;;;;5095336;28;20008;-72
2021/06/22 08:36:01;;;;;;;;;;;16.30;99.90;;;;;;5095360;28;20280;-72
2021/06/22 08:38:26;;;;;;;;;;;16.30;99.90;;;;;;5094313;28;20416;-73
2021/06/22 08:40:52;;;;;;;;;;;16.40;99.90;;;;;;5095194;28;19908;-71
2021/06/22 08:43:18;;;;;;;;;;;16.40;99.90;;;;;;5094843;28;20003;-72
2021/06/22 08:45:43;;;;;;;;;;;16.50;99.90;;;;;;5094315;28;20013;-73
2021/06/22 08:48:09;;;;;;;;;;;16.70;99.90;;;;;;5094971;28;19908;-72
2021/06/22 08:50:36;;;;;;;;;;;16.70;99.90;;;;;;5095078;28;20368;-72
2021/06/22 08:53:02;;;;;;;;;;;16.80;99.90;;;;;;5094286;28;19908;-72
2021/06/22 08:55:30;;;;;;;;;;;16.90;99.90;;;;;;5094911;28;20000;-71
2021/06/22 08:58:00;;;;;;;;;;;16.90;99.90;;;;;;5094757;28;20006;-72
2021/06/22 09:00:26;;;;;;;;;;;16.80;99.90;;;;;;5093851;28;19962;-72
2021/06/22 09:03:12;;;;;;;;;;;16.80;99.90;;;;;;5094734;28;19908;-72
2021/06/22 09:05:41;;;;;;;;;;;16.80;99.90;;;;;;5094634;28;20298;-72
2021/06/22 09:08:25;;;;;;;;;;;16.60;99.90;;;;;;5093799;28;19909;-72
2021/06/22 09:11:04;;;;;;;;;;;16.50;99.90;;;;;;5094551;28;19908;-72
2021/06/22 09:13:31;;;;;;;;;;;16.40;99.90;;;;;;5093860;28;19908;-72
2021/06/22 09:15:56;;;;;;;;;;;16.40;99.90;;;;;;5094549;28;19908;-73
2021/06/22 09:18:24;;;;;;;;;;;16.40;99.90;;;;;;5094400;28;20002;-72
2021/06/22 09:20:50;;;;;;;;;;;16.50;99.90;;;;;;5093603;28;19923;-73
2021/06/22 09:23:24;;;;;;;;;;;16.60;99.90;;;;;;5094329;28;19908;-72
2021/06/22 09:25:51;;;;;;;;;;;16.70;99.90;;;;;;5094440;28;19908;-74
2021/06/22 09:28:17;;;;;;;;;;;16.80;99.90;;;;;;5093771;28;19961;-71
2021/06/22 09:30:45;;;;;;;;;;;16.80;99.90;;;;;;5094395;28;19908;-73
2021/06/22 09:33:30;;;;;;;;;;;17.00;99.90;;;;;;5094202;28;20108;-73
2021/06/22 09:36:15;;;;;;;;;;;17.10;99.90;;;;;;5092888;28;19999;-72
2021/06/22 09:38:45;;;;;;;;;;;17.30;99.90;;;;;;5094161;28;19917;-72
2021/06/22 09:41:12;;;;;;;;;;;17.20;99.90;;;;;;5093318;28;20014;-75
2021/06/22 09:43:39;;;;;;;;;;;17.10;99.90;;;;;;5094162;28;19994;-73
2021/06/22 09:46:06;;;;;;;;;;;17.30;99.90;;;;;;5093954;28;20367;-73
2021/06/22 09:48:38;;;;;;;;;;;17.10;99.90;;;;;;5093307;28;19908;-72
2021/06/22 09:51:05;;;;;;;;;;;17.10;99.90;;;;;;5094033;28;20252;-73
2021/06/22 09:53:31;;;;;;;;;;;17.10;99.90;;;;;;5093902;28;19909;-73
2021/06/22 09:55:57;;;;;;;;;;;16.90;99.90;;;;;;5093000;28;19927;-72
2021/06/22 09:58:42;;;;;;;;;;;17.00;99.90;;;;;;5093614;28;20422;-72
2021/06/22 10:01:25;;;;;;;;;;;17.10;99.90;;;;;;5093622;28;19908;-72
2021/06/22 10:03:50;;;;;;;;;;;17.00;99.90;;;;;;5092903;28;19915;-72
2021/06/22 10:06:16;;;;;;;;;;;17.10;99.90;;;;;;5093890;28;19908;-71
2021/06/22 10:08:55;;;;;;;;;;;17.20;99.90;;;;;;5093557;28;19908;-72
2021/06/22 10:11:31;;;;;;;;;;;17.30;99.60;;;;;;5092801;28;19997;-71
2021/06/22 10:13:57;;;;;;;;;;;17.30;98.00;;;;;;5093568;28;19908;-71
2021/06/22 10:16:23;;;;;;;;;;;17.30;98.00;;;;;;5091223;28;19934;-72
2021/06/22 10:18:49;;;;;;;;;;;17.30;98.80;;;;;;5093226;28;19922;-72
2021/06/22 10:21:15;;;;;;;;;;;17.50;99.20;;;;;;5093186;28;20338;-72
2021/06/22 10:23:41;;;;;;;;;;;17.70;98.90;;;;;;5092698;28;19912;-72
2021/06/22 10:26:07;;;;;;;;;;;17.80;98.30;;;;;;5093256;28;19915;-73
2021/06/22 10:28:33;;;;;;;;;;;17.90;98.80;;;;;;5093459;28;19947;-72
2021/06/22 10:30:59;;;;;;;;;;;17.90;98.40;;;;;;5092663;28;19914;-71
2021/06/22 10:33:24;;;;;;;;;;;18.10;99.00;;;;;;5093240;28;19908;-71
2021/06/22 10:35:50;;;;;;;;;;;18.20;98.10;;;;;;5093374;28;20507;-72
2021/06/22 10:38:17;;;;;;;;;;;18.30;98.70;;;;;;5092420;28;20318;-71
2021/06/22 10:40:43;;;;;;;;;;;18.50;98.20;;;;;;5093077;28;20387;-71
2021/06/22 10:43:08;;;;;;;;;;;18.70;98.10;;;;;;5093006;28;19920;-71
2021/06/22 10:45:52;;;;;;;;;;;18.60;97.70;;;;;;5092526;28;19955;-72
2021/06/22 10:48:18;;;;;;;;;;;18.70;97.60;;;;;;5093237;28;19943;-72
2021/06/22 10:50:43;;;;;;;;;;;18.80;97.60;;;;;;5093158;28;20284;-73
2021/06/22 10:53:09;;;;;;;;;;;19.00;97.20;;;;;;5092326;28;19990;-73
2021/06/22 10:55:37;;;;;;;;;;;19.10;96.00;;;;;;5092980;28;20383;-71
2021/06/22 11:00:30;;;;;;;;;;;19.20;96.50;;;;;;5092407;28;19908;-72
2021/06/22 11:02:58;;;;;;;;;;;19.20;96.20;;;;;;5093090;28;19908;-72
2021/06/22 11:05:24;;;;;;;;;;;19.20;96.40;;;;;;5092214;28;20023;-72
2021/06/22 11:08:08;;;;;;;;;;;19.00;96.80;;;;;;5092863;28;19909;-71
2021/06/22 11:10:34;;;;;;;;;;;18.90;96.30;;;;;;5092988;28;19999;-72
2021/06/22 11:12:59;;;;;;;;;;;18.80;95.50;;;;;;5092286;28;19944;-73
2021/06/22 11:15:43;;;;;;;;;;;18.80;95.50;;;;;;5092629;28;19966;-72
2021/06/22 11:18:10;;;;;;;;;;;18.90;95.80;;;;;;5092809;28;19916;-73
2021/06/22 11:20:36;;;;;;;;;;;19.00;95.70;;;;;;5091965;28;20351;-73
2021/06/22 11:23:06;;;;;;;;;;;19.00;96.10;;;;;;5092936;28;19916;-72
2021/06/22 11:25:46;;;;;;;;;;;18.90;96.10;;;;;;5092936;28;19908;-72
2021/06/22 11:28:12;;;;;;;;;;;18.70;96.60;;;;;;5092206;28;19908;-72
2021/06/22 11:30:48;;;;;;;;;;;18.80;97.40;;;;;;5092678;28;19908;-72
2021/06/22 11:33:34;;;;;;;;;;;18.90;97.00;;;;;;5096086;28;20015;-73
2021/06/22 11:36:15;;;;;;;;;;;18.90;96.90;;;;;;5096469;28;19909;-72
2021/06/22 11:38:40;;;;;;;;;;;19.00;98.40;;;;;;5096359;28;19916;-72
2021/06/22 11:41:10;;;;;;;;;;;19.20;98.10;;;;;;5095499;28;19916;-72
2021/06/22 11:43:36;;;;;;;;;;;19.20;97.30;;;;;;5095999;28;19920;-72
2021/06/22 11:46:31;;;;;;;;;;;19.30;97.20;;;;;;5096173;28;19912;-72
2021/06/22 11:48:59;;;;;;;;;;;19.30;97.10;;;;;;5090597;28;19916;-72
2021/06/22 11:52:00;;;;;;;;;;;19.50;97.10;;;;;;5096308;28;19912;-72
2021/06/22 11:54:45;;;;;;;;;;;19.40;96.80;;;;;;5073582;28;19916;-73
2021/06/22 11:57:25;;;;;;;;;;;19.40;97.20;;;;;;5094020;28;20280;-73
2021/06/22 11:59:51;;;;;;;;;;;19.70;97.50;;;;;;5095938;28;19916;-71
2021/06/22 12:02:17;;;;;;;;;;;19.80;97.10;;;;;;5095456;28;19998;-72
2021/06/22 12:04:42;;;;;;;;;;;19.80;96.80;;;;;;5096012;28;19939;-72
2021/06/22 12:07:11;;;;;;;;;;;19.90;97.80;;;;;;5095805;28;19915;-72
2021/06/22 12:09:40;;;;;;;;;;;19.80;97.30;;;;;;5094921;28;20024;-72
2021/06/22 12:12:06;;;;;;;;;;;19.90;96.80;;;;;;5095847;28;19958;-72
2021/06/22 12:14:32;;;;;;;;;;;19.70;97.90;;;;;;5095596;27;20356;-73
2021/06/22 12:16:58;;;;;;;;;;;19.60;97.60;;;;;;5095043;28;19943;-73
2021/06/22 12:19:24;;;;;;;;;;;19.70;96.80;;;;;;5095489;28;19943;-73
2021/06/22 12:21:51;;;;;;;;;;;19.50;96.70;;;;;;5095936;28;19908;-72
2021/06/22 12:24:17;;;;;;;;;;;19.50;96.60;;;;;;5094889;28;19919;-73
2021/06/22 12:26:45;;;;;;;;;;;19.60;98.00;;;;;;5095759;28;20272;-72
2021/06/22 12:29:17;;;;;;;;;;;19.80;97.70;;;;;;5095360;28;19962;-72
2021/06/22 12:31:50;;;;;;;;;;;20.20;96.90;;;;;;5094861;28;19908;-73
2021/06/22 12:34:16;;;;;;;;;;;19.90;96.10;;;;;;5095370;28;19908;-72
2021/06/22 12:36:41;;;;;;;;;;;19.80;95.90;;;;;;5094759;28;19915;-72
2021/06/22 12:39:07;;;;;;;;;;;20.00;96.30;;;;;;5095193;28;19923;-71
2021/06/22 12:41:33;;;;;;;;;;;20.20;96.80;;;;;;5094762;28;20026;-72
2021/06/22 12:44:03;;;;;;;;;;;20.40;96.10;;;;;;5092920;28;19958;-72
2021/06/22 12:46:29;;;;;;;;;;;20.10;94.80;;;;;;5095259;28;19912;-72
2021/06/22 12:48:56;;;;;;;;;;;20.20;95.20;;;;;;5095008;28;19908;-73
2021/06/22 12:51:21;;;;;;;;;;;20.00;95.90;;;;;;5094280;28;19909;-73
2021/06/22 12:53:49;;;;;;;;;;;20.10;95.50;;;;;;5094995;28;19937;-72
2021/06/22 12:56:18;;;;;;;;;;;20.00;96.20;;;;;;5095055;28;19956;-72
2021/06/22 12:58:54;;;;;;;;;;;20.20;96.00;;;;;;5094119;28;20001;-72
2021/06/22 13:01:30;;;;;;;;;;;20.30;95.10;;;;;;5094680;28;19909;-72
2021/06/22 13:03:56;;;;;;;;;;;20.10;95.40;;;;;;5094644;28;19908;-72
2021/06/22 13:06:33;;;;;;;;;;;19.80;94.70;;;;;;5093902;28;19915;-72
2021/06/22 13:08:59;;;;;;;;;;;19.80;95.00;;;;;;5094776;28;19915;-72
2021/06/22 13:11:26;;;;;;;;;;;19.80;95.60;;;;;;5094564;28;20361;-72
2021/06/22 13:13:51;;;;;;;;;;;19.90;95.50;;;;;;5093940;28;20007;-71
2021/06/22 13:16:17;;;;;;;;;;;20.00;95.40;;;;;;5094590;28;19939;-71
2021/06/22 13:19:02;;;;;;;;;;;20.20;95.20;;;;;;5094238;28;20275;-72
2021/06/22 13:21:43;;;;;;;;;;;20.40;95.50;;;;;;5094432;28;20248;-72
2021/06/22 13:24:09;;;;;;;;;;;20.70;93.60;;;;;;5094278;28;19915;-72
2021/06/22 13:26:37;;;;;;;;;;;20.80;94.00;;;;;;5093608;28;19915;-72
2021/06/22 13:29:02;;;;;;;;;;;21.00;93.80;;;;;;5094377;28;19909;-73
2021/06/22 13:31:28;;;;;;;;;;;21.40;93.00;;;;;;5094249;28;19908;-74
2021/06/22 13:33:59;;;;;;;;;;;21.40;93.20;;;;;;5093592;28;20421;-72
2021/06/22 13:36:24;;;;;;;;;;;21.40;92.40;;;;;;5094303;28;19923;-71
2021/06/22 13:39:07;;;;;;;;;;;21.30;92.80;;;;;;5094101;28;20012;-72
2021/06/22 13:41:50;;;;;;;;;;;21.40;92.80;;;;;;5092930;28;21245;-72
2021/06/22 13:44:39;;;;;;;;;;;21.40;92.90;;;;;;5094188;28;19932;-72
2021/06/22 13:47:05;;;;;;;;;;;21.60;91.50;;;;;;5093304;28;19916;-72
2021/06/22 13:49:37;;;;;;;;;;;21.00;92.50;;;;;;5094015;28;19908;-72
2021/06/22 13:52:03;;;;;;;;;;;20.90;93.30;;;;;;5093784;28;19908;-72
2021/06/22 13:54:29;;;;;;;;;;;20.50;93.50;;;;;;5092629;28;19915;-72
2021/06/22 13:56:54;;;;;;;;;;;20.20;94.20;;;;;;5093631;28;20362;-72
2021/06/22 13:59:20;;;;;;;;;;;20.30;94.10;;;;;;5093804;28;20007;-72
2021/06/22 14:01:45;;;;;;;;;;;20.10;93.70;;;;;;5092884;28;19961;-72
2021/06/22 14:04:11;;;;;;;;;;;19.90;93.70;;;;;;5093313;28;19908;-71
2021/06/22 14:06:36;;;;;;;;;;;20.00;94.10;;;;;;5093204;28;19908;-72
2021/06/22 14:09:02;;;;;;;;;;;20.10;93.90;;;;;;5092798;28;19908;-71
2021/06/22 14:11:28;;;;;;;;;;;20.10;93.40;;;;;;5093653;28;19912;-72
2021/06/22 14:13:56;;;;;;;;;;;20.10;94.40;;;;;;5093687;28;19960;-72
2021/06/22 14:16:22;;;;;;;;;;;19.80;94.30;;;;;;5093030;28;19908;-72
2021/06/22 14:18:47;;;;;;;;;;;19.70;94.30;;;;;;5093244;28;19916;-71